Time;durP1;ratioP1;P1;durP2;ratioP2;P2;SDS_P1;SDS_P2;PMS_P1;PMS_P2;Temp;Humidity;BMP_temperature;BMP_pressure;BME280_temperature;BME280_humidity;BME280_pressure;Samples;Min_cycle;Max_cycle;Signal;HPM_P1;HPM_P2
2023/01/11 00:00:27;;;;;;;15.07;3.08;;;6.20;99.90;;;6.22;98.14;99888.28;4969900;28;20349;-75
2023/01/11 00:03:00;;;;;;;11.27;2.40;;;6.30;99.90;;;6.26;98.19;99878.72;4967188;28;20308;-75
2023/01/11 00:05:27;;;;;;;11.13;2.40;;;6.30;99.90;;;6.21;98.33;99869.88;4968245;28;20206;-75
2023/01/11 00:07:54;;;;;;;10.10;2.28;;;6.30;99.90;;;6.21;98.28;99877.75;4973393;28;20283;-75
2023/01/11 00:10:22;;;;;;;9.05;2.03;;;6.30;99.90;;;6.23;97.98;99879.56;4971127;28;20204;-74
2023/01/11 00:12:49;;;;;;;13.65;2.92;;;6.30;99.90;;;6.22;98.49;99883.03;4974720;28;20661;-75
2023/01/11 00:15:16;;;;;;;8.55;1.92;;;6.30;99.90;;;6.20;98.92;99895.25;4975977;28;20205;-74
2023/01/11 00:17:43;;;;;;;19.52;4.13;;;6.30;99.90;;;6.21;99.47;99909.25;4973471;28;20268;-75
2023/01/11 00:20:10;;;;;;;12.25;2.58;;;6.30;99.90;;;6.20;100.00;99911.00;4981427;28;20272;-75
2023/01/11 00:22:37;;;;;;;12.60;2.75;;;6.30;99.90;;;6.20;100.00;99924.13;4974141;28;20237;-75
2023/01/11 00:25:05;;;;;;;10.32;2.22;;;6.30;99.90;;;6.19;100.00;99919.75;4975319;28;20312;-74
2023/01/11 00:27:32;;;;;;;10.55;2.33;;;6.30;99.90;;;6.20;100.00;99925.88;4971936;28;20296;-74
2023/01/11 00:29:59;;;;;;;15.70;3.35;;;6.30;99.90;;;6.22;100.00;99918.91;4969620;28;20280;-74
2023/01/11 00:32:26;;;;;;;8.15;1.95;;;6.30;99.90;;;6.21;100.00;99933.78;4969778;28;20292;-76
2023/01/11 00:34:53;;;;;;;14.10;3.08;;;6.30;99.90;;;6.22;100.00;99932.03;4962638;28;20220;-74
2023/01/11 00:37:20;;;;;;;10.85;2.33;;;6.30;99.90;;;6.26;100.00;99934.75;4971932;28;20246;-74
2023/01/11 00:39:47;;;;;;;20.27;4.15;;;6.30;99.90;;;6.25;100.00;99937.34;4974993;28;20210;-75
2023/01/11 00:47:57;;;;;;;9.57;2.15;;;6.30;99.90;;;6.28;100.00;99938.28;4973254;28;20210;-75
2023/01/11 00:50:29;;;;;;;11.85;2.55;;;6.30;99.90;;;6.29;100.00;99934.81;4975043;28;20233;-75
2023/01/11 00:52:58;;;;;;;13.18;2.85;;;6.30;99.90;;;6.31;100.00;99929.59;4969513;28;20229;-75
2023/01/11 00:55:26;;;;;;;11.73;2.58;;;6.40;99.90;;;6.30;100.00;99931.31;4973572;28;20241;-75
2023/01/11 00:57:53;;;;;;;12.85;2.80;;;6.40;99.90;;;6.29;100.00;99929.56;4974524;28;20217;-75
2023/01/11 01:00:21;;;;;;;15.07;3.15;;;6.30;99.90;;;6.33;100.00;99934.00;4970679;28;20206;-75
2023/01/11 01:02:48;;;;;;;10.70;2.40;;;6.40;99.90;;;6.33;100.00;99943.63;4968526;28;20260;-75
2023/01/11 01:05:16;;;;;;;16.17;3.47;;;6.40;99.90;;;6.37;100.00;99930.56;4971497;28;20227;-75
2023/01/11 01:07:44;;;;;;;12.18;2.67;;;6.40;99.90;;;6.32;100.00;99924.34;4972008;28;20592;-75
2023/01/11 01:10:15;;;;;;;17.15;3.65;;;6.40;99.90;;;6.30;100.00;99928.69;4982851;28;20284;-74
2023/01/11 01:15:30;;;;;;;11.90;2.47;;;6.40;99.90;;;6.33;100.00;99939.25;4984578;28;20232;-74
2023/01/11 01:17:58;;;;;;;9.95;2.17;;;6.40;99.90;;;6.34;100.00;99927.91;4984591;28;20213;-75
2023/01/11 01:20:34;;;;;;;12.88;2.75;;;6.40;99.90;;;6.37;100.00;99935.81;4972340;28;20204;-75
2023/01/11 01:23:01;;;;;;;8.15;1.85;;;6.40;99.90;;;6.38;100.00;99927.09;4978895;28;20323;-74
2023/01/11 01:25:28;;;;;;;15.98;3.40;;;6.50;99.90;;;6.39;100.00;99925.34;4975363;28;20651;-75
2023/01/11 01:27:55;;;;;;;10.10;2.15;;;6.40;99.90;;;6.35;100.00;99932.28;4991971;28;20241;-75
2023/01/11 01:30:22;;;;;;;15.20;3.17;;;6.40;99.90;;;6.35;100.00;99934.03;4967110;28;20241;-74
2023/01/11 01:32:49;;;;;;;16.05;3.45;;;6.40;99.90;;;6.37;100.00;99940.19;4973778;28;20312;-75
2023/01/11 01:35:16;;;;;;;12.90;2.72;;;6.40;99.90;;;6.34;100.00;99940.13;4968253;28;20241;-77
2023/01/11 01:37:43;;;;;;;11.57;2.55;;;6.40;99.90;;;6.35;100.00;99936.66;4964047;28;20300;-75
2023/01/11 01:40:11;;;;;;;12.02;2.60;;;6.40;99.90;;;6.34;100.00;99948.91;4965752;28;20213;-75
2023/01/11 01:42:38;;;;;;;9.38;2.10;;;6.40;99.90;;;6.33;100.00;99944.50;4967643;28;20237;-75
2023/01/11 01:45:24;;;;;;;13.10;2.85;;;6.40;99.90;;;6.34;100.00;99948.03;4970758;28;20698;-75
2023/01/11 01:47:58;;;;;;;10.32;2.22;;;6.40;99.90;;;6.33;100.00;99951.50;4971248;28;20794;-75
2023/01/11 01:50:52;;;;;;;22.50;4.55;;;6.40;99.90;;;6.30;100.00;99949.72;4970006;28;20241;-75
2023/01/11 01:53:28;;;;;;;9.85;2.13;;;6.40;99.90;;;6.30;100.00;99949.72;4975177;28;20255;-75
2023/01/11 01:55:59;;;;;;;17.90;3.72;;;6.30;99.90;;;6.32;100.00;99966.38;4969637;28;20228;-75
2023/01/11 01:58:34;;;;;;;9.20;1.98;;;6.40;99.90;;;6.32;100.00;99961.13;4967668;28;20245;-75
2023/01/11 02:01:45;;;;;;;21.63;4.40;;;6.40;99.90;;;6.34;100.00;99963.78;4965756;28;20266;-75
2023/01/11 02:03:50;;;;;;;13.43;2.85;;;6.40;99.90;;;6.36;100.00;99972.56;4972120;28;20205;-75
2023/01/11 02:06:21;;;;;;;13.15;2.80;;;6.40;99.90;;;6.35;100.00;99969.06;4971717;28;20232;-75
2023/01/11 02:08:58;;;;;;;12.55;2.65;;;6.40;99.90;;;6.38;100.00;99978.72;4970577;28;20248;-74
2023/01/11 02:11:30;;;;;;;10.32;2.25;;;6.40;99.90;;;6.40;100.00;99982.28;4971425;28;20229;-75
2023/01/11 02:14:06;;;;;;;13.77;2.90;;;6.40;99.90;;;6.41;100.00;99984.03;4970493;28;20219;-75
2023/01/11 02:16:33;;;;;;;8.77;1.95;;;6.50;99.90;;;6.39;100.00;99975.25;4981913;28;20213;-76
2023/01/11 02:19:01;;;;;;;14.57;3.05;;;6.50;99.90;;;6.42;100.00;99983.19;4975003;28;20241;-74
2023/01/11 02:22:43;;;;;;;11.45;2.47;;;6.50;99.90;;;6.42;100.00;99980.56;4967508;28;20260;-74
2023/01/11 02:25:48;;;;;;;12.98;2.75;;;6.50;99.90;;;6.42;100.00;99967.41;4962308;28;20225;-75
2023/01/11 02:28:30;;;;;;;16.98;3.60;;;6.50;99.90;;;6.45;100.00;99971.84;4969346;28;20255;-74
2023/01/11 02:31:26;;;;;;;13.70;2.85;;;6.50;99.90;;;6.47;100.00;99972.75;4982756;28;20212;-74
2023/01/11 02:34:08;;;;;;;14.40;3.10;;;6.50;99.90;;;6.46;100.00;99971.88;4969405;28;20389;-75
2023/01/11 02:36:48;;;;;;;8.10;1.85;;;6.50;99.90;;;6.49;100.00;99969.31;4968565;28;20209;-76
2023/01/11 02:39:39;;;;;;;9.32;2.05;;;6.50;99.90;;;6.50;100.00;99971.09;4971051;28;20279;-75
2023/01/11 02:45:29;;;;;;;16.52;3.42;;;6.60;99.90;;;6.62;100.00;99979.19;4969435;28;20650;-74
2023/01/11 02:48:02;;;;;;;11.90;2.63;;;6.60;99.90;;;6.63;100.00;99978.34;4980661;28;20254;-75
2023/01/11 02:50:43;;;;;;;15.65;3.35;;;6.70;99.90;;;6.66;100.00;99975.78;4980045;28;20235;-75
2023/01/11 02:53:48;;;;;;;13.00;2.85;;;6.70;99.90;;;6.71;100.00;99975.84;4962846;28;20244;-75
2023/01/11 02:56:23;;;;;;;9.57;2.17;;;6.70;99.90;;;6.70;100.00;99967.09;4960775;28;20228;-75
2023/01/11 02:58:54;;;;;;;63.38;12.68;;;6.70;99.90;;;6.71;100.00;99968.84;4975119;28;20209;-77
2023/01/11 03:01:22;;;;;;;12.38;2.70;;;6.70;99.90;;;6.71;100.00;99967.97;4955559;28;20225;-75
2023/01/11 03:03:50;;;;;;;12.98;2.88;;;6.80;99.90;;;6.73;100.00;99963.63;4968596;28;20209;-75
2023/01/11 03:06:20;;;;;;;11.82;2.63;;;6.80;99.90;;;6.75;100.00;99967.16;4970035;28;20209;-75
2023/01/11 03:09:13;;;;;;;13.18;2.95;;;6.80;99.90;;;6.78;100.00;99972.47;4970026;28;20235;-75
2023/01/11 03:15:33;;;;;;;12.82;2.80;;;6.80;99.90;;;6.79;100.00;99978.59;4968039;28;20217;-75
2023/01/11 03:18:33;;;;;;;14.73;3.15;;;6.80;99.90;;;6.79;100.00;99981.22;4967697;28;20213;-75
2023/01/11 03:21:26;;;;;;;17.67;3.85;;;6.80;99.90;;;6.81;100.00;99987.41;4965937;28;20280;-75
2023/01/11 03:24:22;;;;;;;11.80;2.63;;;6.80;99.90;;;6.80;100.00;99977.75;4952918;28;20270;-75
2023/01/11 03:27:16;;;;;;;12.93;2.78;;;6.80;99.90;;;6.82;100.00;99981.28;4965411;28;20233;-75
2023/01/11 03:30:03;;;;;;;15.95;3.45;;;6.90;99.90;;;6.84;100.00;99983.09;4948928;28;20265;-75
2023/01/11 03:32:47;;;;;;;17.83;3.90;;;6.90;99.90;;;6.86;100.00;99980.47;4959909;28;20724;-75
2023/01/11 03:35:36;;;;;;;13.48;2.92;;;6.90;99.90;;;6.87;100.00;99975.25;4970781;28;20213;-75
2023/01/11 03:38:05;;;;;;;15.73;3.42;;;6.90;99.90;;;6.93;100.00;99969.22;4966857;28;20209;-76
2023/01/11 03:40:54;;;;;;;12.10;2.70;;;6.90;99.90;;;6.95;100.00;99967.50;4951667;28;20221;-75
2023/01/11 03:43:23;;;;;;;18.60;3.90;;;7.00;99.90;;;6.98;100.00;99968.41;4966407;28;20208;-75
2023/01/11 03:46:08;;;;;;;20.35;4.35;;;7.00;99.90;;;7.01;100.00;99971.09;4967432;28;20229;-75
2023/01/11 03:48:52;;;;;;;11.25;2.60;;;7.00;99.90;;;7.05;100.00;99966.78;4973804;28;20268;-75
2023/01/11 03:51:26;;;;;;;18.88;4.00;;;7.10;99.90;;;7.07;100.00;99957.16;5061518;23;20233;-79
2023/01/11 03:53:59;;;;;;;13.20;2.75;;;7.10;99.90;;;7.11;100.00;99964.22;4959867;28;20214;-78
2023/01/11 03:56:40;;;;;;;10.15;2.17;;;7.10;99.90;;;7.12;100.00;99970.38;4960026;28;20241;-79
2023/01/11 03:59:07;;;;;;;10.93;2.28;;;7.10;99.90;;;7.13;100.00;99961.63;4963120;28;20201;-80
2023/01/11 04:01:36;;;;;;;7.55;1.67;;;7.10;99.90;;;7.13;100.00;99966.88;4953427;28;20296;-79
2023/01/11 04:04:03;;;;;;;17.00;3.53;;;7.20;99.90;;;7.13;100.00;99966.88;4957665;28;20326;-79
2023/01/11 04:06:35;;;;;;;10.65;2.30;;;7.10;99.90;;;7.15;100.00;99965.16;4951496;28;20209;-76
2023/01/11 04:09:03;;;;;;;15.73;3.22;;;7.20;99.90;;;7.15;100.00;99957.28;4965405;28;20229;-80
2023/01/11 04:11:30;;;;;;;12.05;2.55;;;7.20;99.90;;;7.15;100.00;99957.28;4971492;28;20685;-79
2023/01/11 04:13:57;;;;;;;9.95;2.10;;;7.20;99.90;;;7.14;100.00;99959.03;4966893;28;20241;-78
2023/01/11 04:16:24;;;;;;;11.20;2.40;;;7.20;99.90;;;7.16;100.00;99967.81;4973504;28;20241;-79
2023/01/11 04:18:51;;;;;;;10.90;2.30;;;7.20;99.90;;;7.19;100.00;99953.84;4970593;28;20206;-78
2023/01/11 04:21:18;;;;;;;18.83;3.78;;;7.20;99.90;;;7.17;100.00;99956.44;4967523;28;20276;-80
2023/01/11 04:23:45;;;;;;;15.02;3.05;;;7.20;99.90;;;7.16;100.00;99961.69;4968254;28;20294;-77
2023/01/11 04:26:13;;;;;;;12.60;2.67;;;7.20;99.90;;;7.16;100.00;99959.94;4969199;28;20654;-76
2023/01/11 04:28:40;;;;;;;9.50;2.05;;;7.20;99.90;;;7.14;100.00;99958.13;4976301;28;20276;-76
2023/01/11 04:31:07;;;;;;;17.98;3.58;;;7.20;99.90;;;7.14;100.00;99950.25;4975008;28;20241;-74
2023/01/11 04:33:34;;;;;;;12.05;2.53;;;7.20;99.90;;;7.15;100.00;99944.13;4970207;28;20213;-75
2023/01/11 04:36:09;;;;;;;13.57;2.85;;;7.20;99.90;;;7.15;100.00;99938.88;4975440;28;20268;-76
2023/01/11 04:38:37;;;;;;;21.17;4.22;;;7.20;99.90;;;7.13;100.00;99928.34;4975026;28;20204;-78
2023/01/11 04:43:53;;;;;;;10.57;2.25;;;7.20;99.90;;;7.12;100.00;99926.56;4969563;28;20197;-77
2023/01/11 04:46:20;;;;;;;7.95;1.75;;;7.20;99.90;;;7.12;100.00;99923.94;4984766;28;20272;-77
2023/01/11 04:48:47;;;;;;;14.35;2.97;;;7.10;99.90;;;7.12;100.00;99918.69;4969795;28;20296;-76
2023/01/11 04:51:14;;;;;;;11.85;2.45;;;7.10;99.90;;;7.13;100.00;99909.03;4969131;28;20721;-75
2023/01/11 04:53:41;;;;;;;22.52;4.65;;;7.10;99.90;;;7.15;100.00;99899.44;4967226;28;20252;-77
2023/01/11 04:56:10;;;;;;;13.40;2.78;;;7.20;99.90;;;7.18;100.00;99905.63;4974134;28;20219;-77
2023/01/11 04:58:37;;;;;;;13.70;2.88;;;7.20;99.90;;;7.19;100.00;99895.97;4971754;28;20209;-77
2023/01/11 05:01:15;;;;;;;25.60;5.07;;;7.20;99.90;;;7.22;100.00;99894.28;4969960;28;20202;-75
2023/01/11 05:03:43;;;;;;;21.90;4.50;;;7.20;99.90;;;7.26;100.00;99884.69;4971515;28;20213;-76
2023/01/11 05:06:11;;;;;;;12.48;2.67;;;7.30;99.90;;;7.25;100.00;99868.03;4966928;28;20301;-77
2023/01/11 05:08:39;;;;;;;19.08;3.95;;;7.30;99.90;;;7.24;100.00;99852.22;4970844;28;20245;-77
2023/01/11 05:11:07;;;;;;;18.10;3.53;;;7.30;99.90;;;7.27;100.00;99847.00;4968551;28;20319;-77
2023/01/11 05:13:41;;;;;;;11.90;2.60;;;7.30;99.90;;;7.29;100.00;99845.28;4973927;28;20276;-76
2023/01/11 05:16:35;;;;;;;10.48;2.28;;;7.30;99.90;;;7.27;100.00;99834.72;4975610;28;20217;-76
2023/01/11 05:19:03;;;;;;;13.25;2.72;;;7.30;99.90;;;7.30;100.00;99828.63;4973437;28;20201;-77
2023/01/11 05:21:33;;;;;;;14.23;3.58;;;7.30;99.90;;;7.32;100.00;99821.63;4972474;28;20336;-77
2023/01/11 05:24:05;;;;;;;13.95;2.92;;;7.30;99.90;;;7.30;100.00;99816.34;4972850;28;20252;-77
2023/01/11 05:26:52;;;;;;;16.92;3.55;;;7.30;99.90;;;7.32;100.00;99814.63;4974274;28;20280;-78
2023/01/11 05:29:20;;;;;;;12.02;2.53;;;7.30;99.90;;;7.32;100.00;99806.75;4967892;28;20265;-76
2023/01/11 05:31:47;;;;;;;18.25;3.75;;;7.30;99.90;;;7.33;100.00;99792.72;4964517;28;20256;-76
2023/01/11 05:34:15;;;;;;;10.27;2.17;;;7.40;99.90;;;7.33;100.00;99779.56;4973464;28;20288;-76
2023/01/11 05:37:40;;;;;;;11.23;2.42;;;7.40;99.90;;;7.35;100.00;99771.69;4967920;28;20301;-77
2023/01/11 05:40:08;;;;;;;13.15;2.78;;;7.40;99.90;;;7.35;100.00;99759.44;4964818;28;20236;-77
2023/01/11 05:42:35;;;;;;;11.80;2.53;;;7.40;99.90;;;7.38;100.00;99754.22;4974425;28;20295;-77
2023/01/11 05:47:51;;;;;;;15.02;3.15;;;7.40;99.90;;;7.41;100.00;99749.84;4968440;28;20611;-76
2023/01/11 05:50:18;;;;;;;12.65;2.80;;;7.40;99.90;;;7.42;100.00;99747.22;4962273;28;20311;-76
2023/01/11 05:52:45;;;;;;;13.75;2.83;;;7.40;99.90;;;7.45;100.00;99742.00;4969344;28;20280;-76
2023/01/11 05:55:12;;;;;;;13.93;2.97;;;7.40;99.90;;;7.51;100.00;99741.19;4974420;28;20209;-77
2023/01/11 05:57:44;;;;;;;14.25;2.97;;;7.50;99.90;;;7.47;100.00;99732.38;4974331;28;20253;-78
2023/01/11 06:00:12;;;;;;;17.35;3.55;;;7.50;99.90;;;7.50;100.00;99728.91;4974558;28;20201;-79
2023/01/11 06:02:39;;;;;;;12.82;2.70;;;7.50;99.90;;;7.50;100.00;99714.00;4968092;28;20237;-80
2023/01/11 06:05:07;;;;;;;10.05;2.15;;;7.50;99.90;;;7.49;100.00;99714.84;4967651;28;20669;-78
2023/01/11 06:07:34;;;;;;;9.98;2.15;;;7.50;99.90;;;7.53;100.00;99728.94;4963685;28;20816;-79
2023/01/11 06:10:02;;;;;;;11.38;2.45;;;7.50;99.90;;;7.52;100.00;99720.16;4956105;28;20245;-78
2023/01/11 06:12:29;;;;;;;10.43;2.17;;;7.50;99.90;;;7.53;100.00;99721.91;4973935;28;20283;-79
2023/01/11 06:14:56;;;;;;;13.48;3.00;;;7.60;99.90;;;7.53;100.00;99719.28;5082166;23;20258;-76
2023/01/11 06:17:25;;;;;;;14.73;3.17;;;7.60;99.90;;;7.56;100.00;99723.69;4990858;28;20205;-76
2023/01/11 06:19:52;;;;;;;16.90;3.58;;;7.60;99.90;;;7.56;100.00;99727.22;4974930;28;20303;-77
2023/01/11 06:22:19;;;;;;;9.48;2.05;;;7.60;99.90;;;7.56;100.00;99726.31;4984164;28;20231;-76
2023/01/11 06:24:46;;;;;;;7.13;1.60;;;7.60;99.90;;;7.58;100.00;99725.47;4988146;28;20201;-76
2023/01/11 06:27:17;;;;;;;13.68;2.90;;;7.60;99.90;;;7.61;100.00;99717.59;4994398;28;20216;-77
2023/01/11 06:29:44;;;;;;;10.45;2.25;;;7.60;99.90;;;7.64;100.00;99727.28;4993795;28;20252;-75
2023/01/11 06:32:11;;;;;;;13.88;2.95;;;7.70;99.90;;;7.66;100.00;99736.06;4984478;28;20284;-75
2023/01/11 06:34:39;;;;;;;13.70;2.95;;;7.70;99.90;;;7.68;100.00;99739.59;4952464;29;20296;-75
2023/01/11 06:37:06;;;;;;;11.63;2.55;;;7.70;99.90;;;7.70;100.00;99743.13;4963366;28;20637;-75
2023/01/11 06:39:33;;;;;;;13.65;2.90;;;7.70;99.90;;;7.74;100.00;99752.81;4970886;28;20244;-75
2023/01/11 06:42:00;;;;;;;10.07;2.20;;;7.80;99.90;;;7.74;100.00;99759.81;4954057;28;20262;-75
2023/01/11 06:44:27;;;;;;;11.88;2.63;;;7.80;99.90;;;7.75;100.00;99759.84;4964588;28;20217;-75
2023/01/11 06:46:54;;;;;;;12.60;2.70;;;7.80;99.90;;;7.79;100.00;99758.13;4972773;28;20236;-76
2023/01/11 06:49:21;;;;;;;11.25;2.42;;;7.80;99.90;;;7.80;100.00;99768.69;4972588;28;20610;-75
2023/01/11 06:51:48;;;;;;;10.30;2.30;;;7.80;99.90;;;7.85;100.00;99771.38;4973553;28;20328;-76
2023/01/11 06:54:20;;;;;;;12.73;2.72;;;7.90;99.90;;;7.84;100.00;99774.88;4973056;28;20300;-78
2023/01/11 06:56:47;;;;;;;15.88;3.45;;;7.90;99.90;;;7.89;100.00;99778.44;4967276;28;20300;-76
2023/01/11 06:59:14;;;;;;;12.57;2.65;;;7.90;99.90;;;7.87;100.00;99783.69;4972385;28;20245;-76
2023/01/11 07:01:41;;;;;;;12.20;2.65;;;7.90;99.90;;;7.95;100.00;99792.53;4972675;28;20244;-76
2023/01/11 07:04:08;;;;;;;12.65;2.75;;;8.00;99.90;;;7.99;100.00;99796.06;4973137;28;20260;-76
2023/01/11 07:06:35;;;;;;;11.60;2.60;;;8.00;99.90;;;8.08;100.00;99808.44;4969715;28;20264;-77
2023/01/11 07:09:02;;;;;;;19.23;3.97;;;8.10;99.90;;;8.12;100.00;99803.22;4956915;28;20325;-78
2023/01/11 07:11:31;;;;;;;10.90;2.35;;;8.10;99.90;;;8.11;100.00;99808.47;4972860;28;20283;-76
2023/01/11 07:13:58;;;;;;;13.57;2.90;;;8.10;99.90;;;8.08;100.00;99818.97;4973538;28;20221;-76
2023/01/11 07:16:25;;;;;;;15.65;3.33;;;8.10;99.90;;;8.12;100.00;99821.66;4973015;28;20256;-76
2023/01/11 07:18:51;;;;;;;12.48;2.67;;;8.10;99.90;;;8.12;100.00;99823.41;4973899;28;20205;-78
2023/01/11 07:21:18;;;;;;;19.20;4.13;;;8.20;99.90;;;8.11;100.00;99824.28;4971439;28;20315;-76
2023/01/11 07:23:47;;;;;;;10.10;2.20;;;8.10;99.90;;;8.07;100.00;99820.72;4968620;28;20271;-76
2023/01/11 07:26:16;;;;;;;11.07;2.42;;;8.10;99.90;;;8.09;100.00;99829.53;4973249;28;20213;-76
2023/01/11 07:28:43;;;;;;;12.40;2.70;;;8.10;99.90;;;8.06;100.00;99831.25;4973247;28;20220;-78
2023/01/11 07:31:10;;;;;;;16.42;3.40;;;8.10;99.90;;;8.06;100.00;99839.16;4972595;28;20295;-78
2023/01/11 07:33:37;;;;;;;11.40;2.47;;;8.10;99.90;;;8.10;100.00;99839.19;4973696;28;20209;-77
2023/01/11 07:36:05;;;;;;;13.75;2.95;;;8.10;99.90;;;8.09;100.00;99847.06;4983467;28;20256;-77
2023/01/11 07:38:32;;;;;;;13.65;3.00;;;8.10;99.90;;;8.08;100.00;99838.28;4973293;28;20240;-76
2023/01/11 07:43:10;;;;;;;16.42;3.47;;;8.10;99.90;;;8.07;100.00;99838.28;4967759;28;20287;-73
2023/01/11 07:43:47;;;;;;;15.73;3.47;;;8.10;99.90;;;8.07;100.00;99836.53;4971576;28;20224;-73
2023/01/11 07:46:14;;;;;;;12.48;2.72;;;8.10;99.90;;;8.09;100.00;99834.78;4972438;28;20293;-73
2023/01/11 07:48:41;;;;;;;11.85;2.58;;;8.10;99.90;;;8.07;100.00;99838.28;4971858;28;20271;-74
2023/01/11 07:51:08;;;;;;;18.17;3.85;;;8.10;99.90;;;8.09;100.00;99842.69;4972355;28;20268;-74
2023/01/11 07:53:35;;;;;;;16.55;3.55;;;8.10;99.90;;;8.10;100.00;99830.41;4975419;28;20205;-74
2023/01/11 07:56:02;;;;;;;14.75;3.25;;;8.10;99.90;;;8.12;100.00;99826.91;4968309;28;20263;-75
2023/01/11 07:58:31;;;;;;;14.05;3.03;;;8.10;99.90;;;8.17;100.00;99832.22;4974510;28;20201;-75
2023/01/11 08:01:00;;;;;;;14.05;3.00;;;8.20;99.90;;;8.16;100.00;99833.97;4968547;28;20213;-77
2023/01/11 08:03:28;;;;;;;13.57;2.90;;;8.20;99.90;;;8.16;100.00;99822.56;4975707;28;20213;-76
2023/01/11 08:05:56;;;;;;;13.80;3.03;;;8.20;99.90;;;8.17;100.00;99825.22;4976381;28;20658;-74
2023/01/11 08:08:23;;;;;;;11.75;2.55;;;8.20;99.90;;;8.17;100.00;99825.22;4982996;28;20260;-75
2023/01/11 08:14:37;;;;;;;13.00;2.83;;;8.20;99.90;;;8.16;100.00;99823.44;4975101;28;20257;-75
2023/01/11 08:16:23;;;;;;;16.33;3.47;;;8.20;99.90;;;8.24;100.00;99821.75;4975151;28;20217;-75
2023/01/11 08:18:51;;;;;;;14.20;3.10;;;8.20;99.90;;;8.24;100.00;99821.75;4972704;28;20229;-74
2023/01/11 08:21:20;;;;;;;14.57;3.17;;;8.20;99.90;;;8.25;100.00;99812.97;4973948;28;20723;-74
2023/01/11 08:23:52;;;;;;;11.05;2.42;;;8.30;99.90;;;8.28;100.00;99802.47;4976422;28;20304;-74
2023/01/11 08:26:21;;;;;;;11.13;2.45;;;8.30;99.90;;;8.27;100.00;99802.47;4975085;28;20240;-74
2023/01/11 08:28:48;;;;;;;16.33;3.45;;;8.30;99.90;;;8.28;100.00;99797.19;4973008;28;20256;-74
2023/01/11 08:31:18;;;;;;;17.40;3.70;;;8.30;99.90;;;8.31;100.00;99804.25;4974792;28;20296;-74
2023/01/11 08:33:51;;;;;;;13.55;2.90;;;8.30;99.90;;;8.30;100.00;99799.84;4974674;28;20209;-74
2023/01/11 08:36:26;;;;;;;12.40;2.60;;;9.10;99.90;;;8.33;100.00;99807.81;4970106;28;20227;-75
2023/01/11 08:38:58;;;;;;;15.52;3.35;;;8.30;99.90;;;8.39;100.00;99806.97;4970551;28;20214;-74
2023/01/11 08:41:32;;;;;;;15.38;3.35;;;8.40;99.90;;;8.40;100.00;99803.47;4970917;28;20260;-74
2023/01/11 08:43:59;;;;;;;20.33;4.32;;;8.40;99.90;;;8.47;100.00;99813.19;4971079;28;20200;-75
2023/01/11 08:46:26;;;;;;;11.77;2.58;;;8.50;99.90;;;8.47;100.00;99815.81;4973378;28;20295;-75
2023/01/11 08:48:53;;;;;;;11.13;2.45;;;8.50;99.90;;;8.48;100.00;99807.94;4986497;28;20272;-74
2023/01/11 08:51:21;;;;;;;17.30;3.65;;;8.50;99.90;;;8.54;100.00;99817.63;4990918;28;20233;-75
2023/01/11 08:53:50;;;;;;;15.35;3.22;;;8.50;99.90;;;8.52;100.00;99828.16;4968445;28;20305;-75
2023/01/11 08:56:18;;;;;;;18.58;4.00;;;8.50;99.90;;;8.56;100.00;99834.34;4971483;28;20272;-74
2023/01/11 08:58:45;;;;;;;15.75;3.45;;;8.60;99.90;;;8.56;100.00;99843.13;4974427;28;20275;-77
2023/01/11 09:01:12;;;;;;;18.58;3.88;;;8.60;99.90;;;8.58;100.00;99851.94;4973822;28;20209;-74
2023/01/11 09:03:39;;;;;;;10.93;2.40;;;8.60;99.90;;;8.65;100.00;99858.13;4973999;28;20235;-75
2023/01/11 09:06:06;;;;;;;18.55;4.60;;;8.60;99.90;;;8.67;100.00;99861.66;4972675;28;20264;-75
2023/01/11 09:08:33;;;;;;;16.25;3.45;;;8.70;99.90;;;8.70;100.00;99873.97;4969683;28;20283;-75
2023/01/11 09:11:00;;;;;;;20.05;4.20;;;8.70;99.90;;;8.76;100.00;99874.03;4985732;28;20249;-75
2023/01/11 09:13:27;;;;;;;13.52;2.90;;;8.80;99.90;;;8.74;100.00;99878.41;4973657;28;20264;-75
2023/01/11 09:15:56;;;;;;;12.63;2.70;;;8.70;99.90;;;8.78;100.00;99893.38;4975588;28;20284;-74
2023/01/11 09:18:25;;;;;;;17.42;3.72;;;8.80;99.90;;;8.79;100.00;99892.50;4975538;28;20208;-75
2023/01/11 09:20:53;;;;;;;14.05;3.03;;;8.80;99.90;;;8.80;100.00;99897.78;4969430;28;20217;-75
2023/01/11 09:23:21;;;;;;;15.68;3.53;;;8.80;99.90;;;8.80;100.00;99907.44;4972917;28;20207;-75
2023/01/11 09:25:48;;;;;;;17.40;3.67;;;8.80;99.90;;;8.81;100.00;99915.38;4975082;28;20205;-74
2023/01/11 09:28:15;;;;;;;17.75;3.85;;;8.80;99.90;;;8.83;100.00;99907.47;4972815;28;20201;-83
2023/01/11 09:30:42;;;;;;;17.05;3.58;;;8.80;99.90;;;8.87;100.00;99925.06;4973078;28;20229;-75
2023/01/11 09:33:09;;;;;;;10.50;2.28;;;8.90;99.90;;;8.85;100.00;99926.81;4970818;28;20630;-75
2023/01/11 09:35:40;;;;;;;16.88;3.53;;;8.90;99.90;;;8.88;100.00;99935.63;4970785;28;20296;-75
2023/01/11 09:38:07;;;;;;;13.43;2.97;;;8.90;99.90;;;8.90;100.00;99952.34;4952601;28;20225;-75
2023/01/11 09:41:23;;;;;;;12.68;2.65;;;8.90;99.90;;;8.88;100.00;99956.72;4975712;28;20268;-75
2023/01/11 09:44:15;;;;;;;12.65;2.80;;;8.90;99.90;;;8.88;100.00;99950.56;4974699;28;20628;-74
2023/01/11 09:46:50;;;;;;;12.25;2.70;;;8.90;99.90;;;8.91;100.00;99955.88;4970301;28;20228;-75
2023/01/11 09:49:27;;;;;;;13.00;2.75;;;8.90;99.90;;;8.91;100.00;99959.38;4973682;28;20294;-75
2023/01/11 09:52:46;;;;;;;10.27;2.22;;;8.90;99.90;;;8.91;100.00;99967.31;4988332;23;20232;-76
2023/01/11 09:55:21;;;;;;;13.88;2.85;;;8.90;99.90;;;8.93;100.00;99970.84;4971118;28;20728;-77
2023/01/11 09:58:21;;;;;;;8.57;1.95;;;8.90;99.90;;;8.96;100.00;99972.63;4971849;28;20213;-76
2023/01/11 10:00:53;;;;;;;11.85;2.50;;;8.90;99.90;;;8.95;100.00;99982.28;4972639;28;20213;-76
2023/01/11 10:03:58;;;;;;;11.15;2.42;;;9.00;99.90;;;8.97;100.00;99982.28;4959365;28;20214;-76
2023/01/11 10:07:03;;;;;;;11.50;2.53;;;9.00;99.90;;;8.96;100.00;99981.41;4969481;28;20303;-74
2023/01/11 10:09:34;;;;;;;10.77;2.30;;;9.00;99.90;;;8.96;100.00;99989.31;4972178;28;20221;-74
2023/01/11 10:12:59;;;;;;;11.38;2.45;;;9.00;99.90;;;8.98;100.00;99986.69;4959512;28;20236;-74
2023/01/11 10:16:20;;;;;;;11.98;2.60;;;9.00;99.90;;;8.97;100.00;99987.56;4968051;28;20709;-75
2023/01/11 10:19:38;;;;;;;16.85;3.60;;;9.00;99.90;;;8.98;100.00;99994.59;4954902;28;20213;-75
2023/01/11 10:22:30;;;;;;;12.82;2.88;;;9.00;99.90;;;9.01;100.00;99991.13;4968274;28;20233;-75
2023/01/11 10:25:08;;;;;;;11.43;2.50;;;9.00;99.90;;;9.05;100.00;99996.41;4971316;28;20217;-75
2023/01/11 10:27:55;;;;;;;10.05;2.20;;;9.00;99.90;;;9.09;100.00;100003.50;4969433;28;20253;-75
2023/01/11 10:37:09;;;;;;;13.95;2.97;;;9.10;99.90;;;9.16;100.00;100007.09;4969351;28;20267;-75
2023/01/11 10:43:21;;;;;;;16.63;3.60;;;9.10;99.90;;;9.17;100.00;100022.94;4971423;28;20247;-75
2023/01/11 10:45:54;;;;;;;14.45;3.10;;;9.10;99.90;;;9.19;100.00;100031.75;4970195;28;20236;-75
2023/01/11 10:48:26;;;;;;;13.10;2.88;;;9.20;99.90;;;9.23;100.00;100040.56;4967429;28;20736;-75
2023/01/11 10:51:04;;;;;;;13.45;2.90;;;9.20;99.90;;;9.26;100.00;100038.84;4969722;28;20264;-75
2023/01/11 10:54:12;;;;;;;13.18;2.92;;;9.20;99.90;;;9.26;100.00;100038.84;4967760;28;20515;-75
2023/01/11 10:57:12;;;;;;;14.35;3.05;;;9.30;99.90;;;9.26;100.00;100049.38;4963663;28;20209;-75
2023/01/11 11:00:16;;;;;;;11.45;2.53;;;9.20;99.90;;;9.27;100.00;100045.88;4971215;28;20248;-76
2023/01/11 11:03:17;;;;;;;11.50;2.55;;;9.30;99.90;;;9.27;100.00;100056.44;4967330;28;20228;-77
2023/01/11 11:06:03;;;;;;;10.15;2.28;;;9.30;99.90;;;9.30;100.00;100047.66;4965671;28;20206;-77
2023/01/11 11:08:54;;;;;;;14.52;3.15;;;9.30;99.90;;;9.32;100.00;100047.66;4963665;28;20271;-77
2023/01/11 11:11:37;;;;;;;11.13;2.50;;;9.30;99.90;;;9.42;100.00;100049.50;4966297;28;20237;-77
2023/01/11 11:14:40;;;;;;;14.73;3.17;;;9.40;99.90;;;9.49;100.00;100065.41;4967180;28;20256;-77
2023/01/11 11:17:29;;;;;;;18.00;3.88;;;9.40;99.90;;;9.60;100.00;100074.28;4965154;28;20212;-77
2023/01/11 11:19:57;;;;;;;15.25;3.25;;;9.60;99.90;;;9.68;100.00;100069.06;4967367;28;20213;-77
2023/01/11 11:22:24;;;;;;;9.18;2.10;;;9.60;99.90;;;9.76;100.00;100063.81;4966802;28;20225;-77